createdAt,value
2019-02-15T08:53:45.623Z,74.12
2019-02-15T08:56:14.497Z,72.72
2019-02-15T08:58:42.419Z,73.39
2019-02-15T09:01:10.185Z,71.80
2019-02-15T09:03:38.043Z,73.57
2019-02-15T09:06:05.833Z,72.97
2019-02-15T09:08:33.700Z,71.19
2019-02-15T09:11:02.494Z,71.37
2019-02-15T09:13:30.380Z,71.40
2019-02-15T09:15:58.276Z,71.75
2019-02-15T09:18:26.146Z,70.13
2019-02-15T09:20:54.100Z,70.59
2019-02-15T09:23:22.020Z,69.06
2019-02-15T09:25:50.075Z,69.90
2019-02-15T09:28:26.161Z,68.46
2019-02-15T09:30:54.631Z,69.51
2019-02-15T09:33:22.617Z,67.66
2019-02-15T09:35:50.918Z,66.22
2019-02-15T09:38:18.941Z,67.56
2019-02-15T09:40:47.027Z,67.32
2019-02-15T09:43:15.095Z,66.14
2019-02-15T09:45:43.078Z,66.76
2019-02-15T09:48:11.141Z,67.28
2019-02-15T09:50:38.998Z,65.68
2019-02-15T09:53:06.852Z,64.95
2019-02-15T09:55:34.657Z,65.35
2019-02-15T09:58:02.907Z,66.06
2019-02-15T10:00:30.782Z,66.59
2019-02-15T10:02:58.719Z,63.44
2019-02-15T10:05:26.590Z,64.69
2019-02-15T10:07:54.540Z,65.49
2019-02-15T10:10:22.530Z,66.04
2019-02-15T10:12:50.345Z,65.51
2019-02-15T10:15:18.154Z,65.04
2019-02-15T10:17:46.070Z,63.66
2019-02-15T10:20:13.958Z,62.46
2019-02-15T10:22:41.892Z,63.21
2019-02-15T10:25:12.733Z,62.61
2019-02-15T10:27:40.755Z,63.25
2019-02-15T10:30:08.982Z,61.83
2019-02-15T10:32:37.138Z,61.43
2019-02-15T10:35:06.307Z,61.91
2019-02-15T10:37:34.087Z,62.72
2019-02-15T10:40:02.038Z,62.41
2019-02-15T10:42:29.824Z,62.30
2019-02-15T10:44:57.623Z,61.07
2019-02-15T10:47:25.621Z,61.11
2019-02-15T10:49:53.470Z,61.39
2019-02-15T10:52:22.033Z,60.04
2019-02-15T10:54:49.963Z,60.53
2019-02-15T10:57:18.523Z,57.89
2019-02-15T10:59:46.469Z,57.23
2019-02-15T11:02:14.221Z,57.53
2019-02-15T11:04:42.072Z,59.24
2019-02-15T11:07:09.855Z,59.36
2019-02-15T11:09:37.689Z,58.13
2019-02-15T11:12:05.730Z,57.91
2019-02-15T11:14:33.546Z,56.83
2019-02-15T11:17:03.109Z,56.44
2019-02-15T11:19:31.082Z,54.45
2019-02-15T11:21:59.046Z,54.27
2019-02-15T11:24:26.974Z,54.02
2019-02-15T11:26:54.870Z,54.02
2019-02-15T11:29:22.757Z,54.31
2019-02-15T11:31:50.574Z,53.82
2019-02-15T11:34:18.494Z,51.91
2019-02-15T11:36:46.285Z,52.08
2019-02-15T11:39:15.009Z,52.13
2019-02-15T11:41:43.188Z,51.80
2019-02-15T11:44:11.109Z,50.96
2019-02-15T11:46:38.868Z,51.61
2019-02-15T11:49:06.903Z,50.57
2019-02-15T11:51:35.385Z,49.79
2019-02-15T11:54:03.473Z,49.22
2019-02-15T11:56:31.337Z,49.22
2019-02-15T11:58:59.187Z,49.09
2019-02-15T12:01:27.054Z,48.13
2019-02-15T12:03:54.995Z,48.17
2019-02-15T12:06:23.587Z,48.17
2019-02-15T12:08:51.548Z,46.98
2019-02-15T12:11:19.602Z,46.98
2019-02-15T12:13:47.446Z,47.95
2019-02-15T12:16:15.213Z,47.33
2019-02-15T12:18:43.043Z,47.71
2019-02-15T12:21:10.982Z,47.71
2019-02-15T12:23:38.929Z,47.23
2019-02-15T12:26:06.777Z,47.05
2019-02-15T12:28:34.559Z,47.05
2019-02-15T12:31:02.408Z,45.77
2019-02-15T12:33:30.271Z,45.46
2019-02-15T12:35:58.095Z,45.63
2019-02-15T12:38:26.000Z,44.85
2019-02-15T12:40:54.020Z,44.85
2019-02-15T12:43:21.893Z,44.39
2019-02-15T12:45:49.725Z,44.32
2019-02-15T12:48:17.523Z,44.86
2019-02-15T12:50:45.556Z,44.07
2019-02-15T12:53:13.423Z,44.11
2019-02-15T12:55:41.753Z,43.88
2019-02-15T12:58:09.502Z,43.24
2019-02-15T13:00:40.960Z,43.80
2019-02-15T13:03:08.963Z,43.23
2019-02-15T13:05:36.913Z,43.44
2019-02-15T13:08:04.899Z,43.75
2019-02-15T13:10:35.282Z,43.08
2019-02-15T13:13:03.205Z,43.08
2019-02-15T13:15:31.027Z,42.96
2019-02-15T13:17:59.127Z,43.24
2019-02-15T13:20:27.199Z,43.16
2019-02-15T13:22:54.974Z,42.35
2019-02-15T13:25:23.027Z,41.65
2019-02-15T13:27:50.924Z,42.29
2019-02-15T13:30:18.744Z,41.83
2019-02-15T13:32:46.552Z,41.85
2019-02-15T13:35:15.643Z,42.55
2019-02-15T13:37:43.410Z,42.54
2019-02-15T13:40:11.332Z,41.17
2019-02-15T13:42:39.218Z,41.75
2019-02-15T13:45:08.385Z,42.08
2019-02-15T13:47:36.256Z,42.39
2019-02-15T13:50:04.435Z,42.33
2019-02-15T13:52:32.328Z,42.94
2019-02-15T13:55:00.307Z,42.77
2019-02-15T13:57:28.244Z,42.52
2019-02-15T13:59:56.096Z,42.13
2019-02-15T14:02:24.076Z,42.36
2019-02-15T14:04:53.101Z,42.20
2019-02-15T14:07:20.875Z,42.24
2019-02-15T14:09:49.036Z,42.35
2019-02-15T14:12:17.005Z,42.19
2019-02-15T14:14:44.903Z,41.60
2019-02-15T14:17:12.833Z,41.88
2019-02-15T14:19:40.819Z,41.51
2019-02-15T14:22:08.980Z,41.72
2019-02-15T14:24:37.635Z,41.80
2019-02-15T14:27:05.565Z,41.75
2019-02-15T14:29:33.503Z,41.98
2019-02-15T14:32:01.476Z,41.41
2019-02-15T14:34:29.390Z,41.66
2019-02-15T14:36:57.208Z,41.29
2019-02-15T14:39:25.073Z,41.19
2019-02-15T14:41:52.914Z,41.51
2019-02-15T14:44:20.776Z,41.13
2019-02-15T14:46:48.691Z,40.91
2019-02-15T14:49:16.473Z,41.35
2019-02-15T14:51:44.336Z,41.44
2019-02-15T14:54:12.291Z,41.51
2019-02-15T14:56:40.239Z,41.60
2019-02-15T14:59:08.084Z,41.46
2019-02-15T15:01:36.036Z,41.75
2019-02-15T15:04:03.788Z,41.65
2019-02-15T15:06:31.613Z,41.72
2019-02-15T15:08:59.492Z,41.77
2019-02-15T15:11:28.061Z,41.02
2019-02-15T15:13:55.857Z,41.97
2019-02-15T15:16:23.670Z,41.99
2019-02-15T15:18:51.453Z,42.38
2019-02-15T15:21:19.371Z,42.65
2019-02-15T15:23:47.139Z,42.83
2019-02-15T15:26:15.062Z,43.03
2019-02-15T15:28:42.957Z,43.19
2019-02-15T15:31:11.239Z,43.36
2019-02-15T15:33:39.358Z,43.65
2019-02-15T15:36:12.730Z,44.05
2019-02-15T15:38:40.628Z,44.40
2019-02-15T15:41:08.686Z,45.18
2019-02-15T15:43:36.483Z,45.18
2019-02-15T15:46:04.409Z,45.27
2019-02-15T15:48:32.895Z,45.48
2019-02-15T15:51:00.738Z,45.80
2019-02-15T15:53:28.620Z,46.09
2019-02-15T15:55:56.432Z,46.13
2019-02-15T15:58:24.220Z,46.45
2019-02-15T16:00:52.216Z,46.93
2019-02-15T16:03:20.146Z,47.16
2019-02-15T16:05:47.939Z,47.36
2019-02-15T16:08:16.407Z,47.35
2019-02-15T16:10:44.965Z,47.77
2019-02-15T16:13:13.143Z,47.92
2019-02-15T16:15:41.015Z,48.12
2019-02-15T16:18:08.886Z,48.15
2019-02-15T16:20:36.757Z,48.29
2019-02-15T16:23:04.705Z,48.64
2019-02-15T16:25:32.680Z,48.80
2019-02-15T16:28:01.808Z,48.80
2019-02-15T16:30:30.436Z,48.38
2019-02-15T16:32:58.292Z,48.91
2019-02-15T16:35:26.092Z,49.37
2019-02-15T16:37:56.890Z,48.12
2019-02-15T16:40:25.642Z,48.58
2019-02-15T16:42:54.705Z,48.28
2019-02-15T16:45:23.795Z,48.28
2019-02-15T16:47:51.717Z,48.10
2019-02-15T16:50:19.640Z,47.85
2019-02-15T16:52:48.722Z,47.83
2019-02-15T16:55:16.495Z,47.58
2019-02-15T16:57:44.429Z,47.67
2019-02-15T17:00:12.664Z,47.65
2019-02-15T17:02:40.481Z,47.64
2019-02-15T17:05:08.561Z,47.69
2019-02-15T17:07:36.592Z,47.75
2019-02-15T17:10:04.993Z,47.79
2019-02-15T17:12:33.178Z,47.64
2019-02-15T17:15:00.945Z,47.64
2019-02-15T17:17:28.808Z,47.52
2019-02-15T17:19:57.219Z,47.73
2019-02-15T17:22:25.232Z,47.79
2019-02-15T17:24:53.109Z,47.79
2019-02-15T17:27:21.179Z,47.93
2019-02-15T17:29:49.766Z,48.12
2019-02-15T17:32:17.626Z,48.15
2019-02-15T17:34:45.549Z,48.18
2019-02-15T17:37:13.427Z,48.05
2019-02-15T17:39:41.333Z,48.05
2019-02-15T17:42:09.207Z,48.19
2019-02-15T17:44:37.110Z,48.19
2019-02-15T17:47:05.079Z,49.01
2019-02-15T17:49:32.848Z,49.01
2019-02-15T17:52:00.635Z,49.84
2019-02-15T17:54:28.471Z,50.38
2019-02-15T17:57:03.366Z,50.38
2019-02-15T17:59:34.778Z,50.71
2019-02-15T18:02:03.191Z,50.88
2019-02-15T18:04:31.140Z,50.88
2019-02-15T18:06:59.005Z,51.10
2019-02-15T18:09:26.905Z,51.65
2019-02-15T18:11:59.942Z,51.92
2019-02-15T18:14:28.366Z,51.92
2019-02-15T18:16:56.279Z,52.78
2019-02-15T18:19:24.102Z,52.78
2019-02-15T18:21:51.940Z,53.00
2019-02-15T18:24:19.905Z,53.37
2019-02-15T18:26:48.098Z,53.81
2019-02-15T18:29:16.466Z,54.40
2019-02-15T18:31:44.346Z,54.40
2019-02-15T18:34:12.172Z,54.82
2019-02-15T18:36:40.075Z,55.30
2019-02-15T18:39:08.896Z,55.30
2019-02-15T18:41:37.560Z,55.91
2019-02-15T18:44:05.574Z,55.91
2019-02-15T18:46:33.515Z,56.15
2019-02-15T18:49:01.628Z,56.15
2019-02-15T18:51:29.542Z,56.43
2019-02-15T18:53:57.499Z,56.43
2019-02-15T18:56:25.294Z,57.00
2019-02-15T18:58:53.266Z,57.28
2019-02-15T19:01:21.181Z,57.83
2019-02-15T19:03:49.168Z,58.55
2019-02-15T19:06:19.084Z,58.55
2019-02-15T19:08:46.938Z,58.18
2019-02-15T19:11:14.931Z,58.50
2019-02-15T19:13:43.124Z,58.63
2019-02-15T19:16:11.394Z,58.90
2019-02-15T19:18:39.996Z,61.23
2019-02-15T19:21:08.162Z,75.36
2019-02-15T19:23:36.799Z,63.84
2019-02-15T19:26:04.748Z,59.28
2019-02-15T19:28:32.786Z,59.28
2019-02-15T19:31:02.619Z,59.68
2019-02-15T19:33:30.586Z,59.57
2019-02-15T19:35:58.519Z,59.88
2019-02-15T19:38:26.526Z,60.08
2019-02-15T19:40:54.459Z,60.23
2019-02-15T19:43:22.387Z,60.44
2019-02-15T19:45:52.125Z,60.57
2019-02-15T19:48:20.050Z,61.17
2019-02-15T19:50:48.629Z,60.90
2019-02-15T19:53:16.603Z,60.95
2019-02-15T19:55:44.379Z,61.06
2019-02-15T19:58:12.256Z,61.18
2019-02-15T20:00:40.122Z,61.25
2019-02-15T20:03:07.937Z,61.40
2019-02-15T20:05:35.791Z,61.48
2019-02-15T20:08:04.214Z,61.54
2019-02-15T20:10:32.307Z,61.52
2019-02-15T20:13:00.985Z,61.57
2019-02-15T20:15:29.105Z,61.60
2019-02-15T20:17:57.331Z,61.61
2019-02-15T20:20:25.329Z,61.65
2019-02-15T20:22:53.123Z,61.67
2019-02-15T20:25:22.420Z,61.71
2019-02-15T20:27:51.254Z,61.74
2019-02-15T20:30:19.318Z,61.80
2019-02-15T20:32:47.328Z,61.83
2019-02-15T20:35:17.772Z,61.86
2019-02-15T20:37:45.797Z,61.92
2019-02-15T20:40:14.748Z,61.97
2019-02-15T20:42:42.587Z,61.98
2019-02-15T20:45:15.460Z,61.94
2019-02-15T20:47:43.340Z,61.91
2019-02-15T20:50:16.856Z,61.95
2019-02-15T20:52:44.801Z,61.99
2019-02-15T20:55:13.827Z,62.13
2019-02-15T20:57:41.852Z,62.21
2019-02-15T21:00:14.231Z,62.24
2019-02-15T21:02:42.422Z,62.22
2019-02-15T21:05:11.163Z,62.23
2019-02-15T21:07:39.055Z,62.26
2019-02-15T21:10:09.217Z,62.34
2019-02-15T21:12:39.450Z,62.38
2019-02-15T21:15:07.328Z,62.47
2019-02-15T21:17:35.250Z,62.51
2019-02-15T21:20:07.945Z,62.63
2019-02-15T21:22:33.503Z,62.61
2019-02-15T21:25:01.511Z,62.80
2019-02-15T21:27:29.319Z,63.09
2019-02-15T21:29:57.868Z,63.10
2019-02-15T21:32:25.785Z,63.23
2019-02-15T21:34:53.810Z,63.31
2019-02-15T21:37:21.830Z,63.29
2019-02-15T21:39:50.329Z,63.43
2019-02-15T21:42:18.251Z,63.62
2019-02-15T21:44:46.229Z,63.85
2019-02-15T21:47:14.005Z,64.15
2019-02-15T21:49:53.986Z,64.50
2019-02-15T21:52:21.996Z,64.50
2019-02-15T21:54:50.677Z,64.55
2019-02-15T21:57:18.701Z,64.63
2019-02-15T21:59:46.545Z,64.55
2019-02-15T22:02:14.531Z,64.73
2019-02-15T22:04:42.770Z,64.72
2019-02-15T22:07:10.548Z,64.62
2019-02-15T22:09:38.442Z,64.62
2019-02-15T22:12:06.398Z,64.61
2019-02-15T22:14:35.195Z,64.54
2019-02-15T22:17:03.774Z,64.71
2019-02-15T22:19:32.204Z,64.76
2019-02-15T22:22:00.174Z,64.90
2019-02-15T22:24:27.975Z,65.06
2019-02-15T22:26:56.059Z,65.02
2019-02-15T22:29:23.848Z,65.04
2019-02-15T22:31:53.129Z,64.96
2019-02-15T22:34:20.950Z,64.87
2019-02-15T22:36:48.833Z,64.74
2019-02-15T22:39:16.632Z,64.86
2019-02-15T22:41:44.505Z,64.99
2019-02-15T22:44:12.261Z,65.17
2019-02-15T22:46:40.873Z,65.28
2019-02-15T22:49:08.742Z,65.41
2019-02-15T22:51:39.484Z,65.64
2019-02-15T22:54:07.427Z,65.84
2019-02-15T22:56:35.384Z,65.96
2019-02-15T22:59:03.431Z,65.94
2019-02-15T23:01:32.365Z,65.95
2019-02-15T23:04:00.250Z,65.83
2019-02-15T23:06:28.479Z,65.77
2019-02-15T23:08:56.427Z,65.80
2019-02-15T23:11:24.553Z,65.87
2019-02-15T23:13:52.428Z,66.03
2019-02-15T23:16:20.344Z,66.18
2019-02-15T23:18:48.350Z,66.17
2019-02-15T23:21:16.213Z,66.38
2019-02-15T23:23:43.998Z,66.35
2019-02-15T23:26:11.914Z,66.48
2019-02-15T23:28:39.717Z,66.57
2019-02-15T23:31:07.595Z,66.60
2019-02-15T23:33:36.122Z,66.61
2019-02-15T23:36:04.001Z,66.67
2019-02-15T23:38:31.900Z,66.90
2019-02-15T23:40:59.786Z,66.93
2019-02-15T23:43:27.658Z,67.00
2019-02-15T23:45:55.581Z,67.08
2019-02-15T23:48:23.455Z,67.02
2019-02-15T23:50:54.841Z,67.00
2019-02-15T23:53:32.322Z,67.06
2019-02-15T23:56:00.172Z,67.19
2019-02-15T23:58:28.129Z,67.24
